Time;durP1;ratioP1;P1;durP2;ratioP2;P2;SDS_P1;SDS_P2;PMS_P1;PMS_P2;Temp;Humidity;BMP_temperature;BMP_pressure;BME280_temperature;BME280_humidity;BME280_pressure;Samples;Min_cycle;Max_cycle;Signal;HPM_P1;HPM_P2
2023/07/01 00:02:14;;;;;;;8.07;4.65;;;16.60;88.50;;;;;;4978229;28;20036;-79
2023/07/01 00:04:42;;;;;;;6.40;4.75;;;16.60;87.90;;;;;;4961779;28;20462;-79
2023/07/01 00:07:08;;;;;;;8.95;5.13;;;16.60;88.20;;;;;;4978266;28;20062;-79
2023/07/01 00:09:34;;;;;;;8.48;4.63;;;16.60;87.40;;;;;;4961699;28;20053;-79
2023/07/01 00:12:00;;;;;;;7.30;4.43;;;16.60;88.10;;;;;;4961424;28;20483;-79
2023/07/01 00:14:25;;;;;;;6.45;4.22;;;16.60;88.40;;;;;;4946550;28;20093;-80
2023/07/01 00:16:51;;;;;;;11.82;4.82;;;16.60;88.00;;;;;;4973858;28;20047;-80
2023/07/01 00:19:17;;;;;;;6.90;3.60;;;16.60;89.10;;;;;;4994597;28;20053;-80
2023/07/01 00:21:43;;;;;;;9.75;4.45;;;16.60;88.10;;;;;;4962268;28;20056;-79
2023/07/01 00:24:09;;;;;;;6.97;4.32;;;16.70;89.90;;;;;;4978066;28;20125;-78
2023/07/01 00:26:35;;;;;;;7.53;4.85;;;16.60;89.90;;;;;;4961941;28;20054;-79
2023/07/01 00:29:01;;;;;;;9.48;4.93;;;16.60;89.40;;;;;;4977709;28;20050;-80
2023/07/01 00:31:27;;;;;;;7.10;4.68;;;16.60;89.90;;;;;;4993592;28;20125;-78
2023/07/01 00:33:52;;;;;;;8.55;4.82;;;16.60;89.20;;;;;;4961540;28;20077;-80
2023/07/01 00:36:18;;;;;;;7.68;5.10;;;16.60;89.20;;;;;;4977177;28;20042;-80
2023/07/01 00:38:44;;;;;;;9.65;4.47;;;16.60;89.30;;;;;;4961145;28;20041;-79
2023/07/01 00:41:09;;;;;;;8.15;5.07;;;16.60;89.40;;;;;;4961182;28;20495;-80
2023/07/01 00:43:35;;;;;;;11.43;5.65;;;16.50;89.50;;;;;;4977245;28;20042;-80
2023/07/01 00:46:01;;;;;;;9.57;5.57;;;16.50;90.50;;;;;;4977286;28;20038;-79
2023/07/01 00:48:28;;;;;;;8.13;5.03;;;16.40;91.50;;;;;;4993575;28;20101;-79
2023/07/01 00:50:54;;;;;;;14.57;6.00;;;16.40;90.60;;;;;;4993311;28;20046;-79
2023/07/01 00:53:20;;;;;;;9.90;5.72;;;16.30;91.40;;;;;;4992985;28;20138;-78
2023/07/01 00:55:46;;;;;;;9.68;5.68;;;16.20;92.20;;;;;;4977015;28;20081;-78
2023/07/01 00:58:12;;;;;;;13.48;6.10;;;16.10;92.70;;;;;;4976408;28;20080;-77
2023/07/01 01:00:38;;;;;;;10.73;6.18;;;16.10;92.60;;;;;;4992715;28;20053;-77
2023/07/01 01:03:26;;;;;;;8.85;6.28;;;16.00;92.80;;;;;;4976499;28;20553;-78
2023/07/01 01:06:04;;;;;;;10.55;6.38;;;16.00;93.30;;;;;;4976792;28;20038;-79
2023/07/01 01:08:59;;;;;;;12.20;7.35;;;16.00;94.20;;;;;;4992389;28;20064;-77
2023/07/01 01:11:28;;;;;;;16.15;7.68;;;16.00;94.70;;;;;;4993002;28;20050;-78
2023/07/01 01:13:58;;;;;;;12.07;8.35;;;16.00;95.10;;;;;;4976374;28;20105;-79
2023/07/01 01:16:25;;;;;;;12.30;8.95;;;15.90;94.70;;;;;;4992718;28;20047;-77
2023/07/01 01:18:52;;;;;;;9.40;7.15;;;16.00;95.20;;;;;;4960645;28;20049;-78
2023/07/01 01:21:20;;;;;;;8.43;6.70;;;16.00;94.10;;;;;;4992831;28;20042;-79
2023/07/01 01:23:55;;;;;;;10.07;7.70;;;15.90;95.30;;;;;;4992741;28;20049;-78
2023/07/01 01:26:26;;;;;;;9.82;6.63;;;15.90;95.50;;;;;;4976452;28;20049;-78
2023/07/01 01:28:52;;;;;;;11.15;6.53;;;15.90;95.30;;;;;;4979970;28;20457;-78
2023/07/01 01:31:19;;;;;;;11.15;6.63;;;15.90;95.50;;;;;;4964030;28;20125;-78
2023/07/01 01:33:46;;;;;;;16.25;8.02;;;15.90;95.40;;;;;;4996470;28;20046;-79
2023/07/01 01:36:29;;;;;;;10.23;7.38;;;15.90;94.80;;;;;;4996231;28;20053;-79
2023/07/01 01:39:05;;;;;;;10.75;7.78;;;16.00;95.50;;;;;;4980166;28;20084;-78
2023/07/01 01:41:42;;;;;;;8.75;6.85;;;16.00;95.80;;;;;;4980252;28;20034;-79
2023/07/01 01:44:13;;;;;;;7.95;6.78;;;16.00;95.50;;;;;;4996787;28;20125;-79
2023/07/01 01:46:41;;;;;;;18.92;8.98;;;16.00;95.30;;;;;;4996149;28;20120;-78
2023/07/01 01:49:08;;;;;;;9.20;6.95;;;15.90;95.60;;;;;;4979866;28;20046;-79
2023/07/01 01:51:36;;;;;;;12.57;8.18;;;16.00;95.20;;;;;;4979931;28;20054;-79
2023/07/01 01:54:05;;;;;;;9.23;7.45;;;16.00;95.30;;;;;;4980481;28;20521;-79
2023/07/01 01:56:32;;;;;;;9.43;7.35;;;16.00;95.40;;;;;;4979926;28;20047;-79
2023/07/01 01:58:58;;;;;;;8.75;7.85;;;16.00;95.60;;;;;;4979808;28;20046;-79
2023/07/01 02:01:24;;;;;;;12.45;7.68;;;16.00;95.10;;;;;;4979848;28;20426;-79
2023/07/01 02:03:50;;;;;;;9.55;6.30;;;16.00;95.30;;;;;;4980083;28;20039;-79
2023/07/01 02:06:16;;;;;;;10.25;6.35;;;16.10;95.10;;;;;;4979590;28;20410;-79
2023/07/01 02:08:41;;;;;;;10.18;6.60;;;16.10;95.50;;;;;;4979489;28;20144;-78
2023/07/01 02:11:07;;;;;;;6.25;5.60;;;16.10;95.00;;;;;;4996247;28;20054;-78
2023/07/01 02:13:33;;;;;;;8.70;7.13;;;16.20;94.90;;;;;;4996964;28;20042;-78
2023/07/01 02:15:59;;;;;;;10.07;7.78;;;16.20;95.20;;;;;;4980717;28;20078;-79
2023/07/01 02:18:24;;;;;;;9.05;7.00;;;16.20;96.00;;;;;;4964526;28;20038;-79
2023/07/01 02:20:50;;;;;;;11.10;7.95;;;16.10;96.00;;;;;;4995770;28;20041;-79
2023/07/01 02:23:16;;;;;;;13.68;8.77;;;16.10;96.40;;;;;;4979860;28;20039;-79
2023/07/01 02:25:42;;;;;;;11.65;8.10;;;16.10;95.80;;;;;;4995668;28;20518;-79
2023/07/01 02:28:08;;;;;;;11.52;8.50;;;16.10;96.60;;;;;;4963095;28;20046;-79
2023/07/01 02:30:35;;;;;;;9.73;8.23;;;16.10;96.60;;;;;;4979121;28;20077;-79
2023/07/01 02:33:02;;;;;;;12.35;9.10;;;16.10;96.50;;;;;;4979309;28;20042;-79
2023/07/01 02:35:27;;;;;;;12.35;9.43;;;16.10;96.80;;;;;;4963014;28;20046;-80
2023/07/01 02:37:53;;;;;;;13.55;9.02;;;16.10;97.00;;;;;;4979131;28;20088;-78
2023/07/01 02:40:19;;;;;;;13.27;8.70;;;16.10;97.00;;;;;;4978638;28;20038;-79
2023/07/01 02:42:44;;;;;;;9.82;8.32;;;16.10;96.60;;;;;;4979114;28;20429;-79
2023/07/01 02:45:10;;;;;;;9.50;6.93;;;16.20;96.70;;;;;;4963102;28;20094;-79
2023/07/01 02:47:36;;;;;;;9.00;6.50;;;16.10;96.60;;;;;;4995361;28;20070;-79
2023/07/01 02:50:04;;;;;;;10.55;7.53;;;16.20;96.20;;;;;;4979153;28;20038;-79
2023/07/01 02:52:30;;;;;;;8.20;7.15;;;16.10;96.20;;;;;;4979171;28;20046;-78
2023/07/01 02:54:55;;;;;;;8.63;7.22;;;16.10;96.20;;;;;;4978724;28;20384;-78
2023/07/01 02:57:22;;;;;;;12.45;8.27;;;16.10;96.10;;;;;;4978676;28;20053;-78
2023/07/01 02:59:48;;;;;;;9.13;6.82;;;16.10;96.20;;;;;;4994914;28;20046;-78
2023/07/01 03:02:14;;;;;;;10.60;8.48;;;16.20;96.00;;;;;;4978952;28;20050;-80
2023/07/01 03:04:40;;;;;;;11.45;9.57;;;16.20;96.10;;;;;;4978419;28;20042;-78
2023/07/01 03:07:06;;;;;;;7.55;6.72;;;16.20;96.10;;;;;;4962325;28;20088;-77
2023/07/01 03:09:31;;;;;;;10.95;8.82;;;16.20;96.30;;;;;;4962492;28;20068;-78
2023/07/01 03:11:57;;;;;;;10.27;8.88;;;16.20;96.20;;;;;;4994973;28;20061;-78
2023/07/01 03:14:23;;;;;;;9.57;8.57;;;16.10;96.30;;;;;;4978855;28;20552;-79
2023/07/01 03:16:49;;;;;;;12.75;9.07;;;16.10;96.50;;;;;;4978213;28;20571;-79
2023/07/01 03:19:15;;;;;;;10.05;8.90;;;16.20;96.40;;;;;;4962575;28;20484;-79
2023/07/01 03:21:41;;;;;;;11.27;8.25;;;16.20;96.50;;;;;;4994596;28;20042;-79
2023/07/01 03:24:07;;;;;;;10.23;8.35;;;16.20;96.30;;;;;;4978584;28;20053;-79
2023/07/01 03:26:33;;;;;;;11.52;8.90;;;16.20;96.50;;;;;;4978481;28;20125;-79
2023/07/01 03:28:58;;;;;;;12.88;9.60;;;16.20;96.50;;;;;;4977366;28;20458;-79
2023/07/01 03:31:24;;;;;;;11.52;9.45;;;16.20;96.70;;;;;;4977787;28;20401;-79
2023/07/01 03:33:50;;;;;;;14.60;10.07;;;16.20;96.60;;;;;;4994146;28;20089;-79
2023/07/01 03:36:16;;;;;;;11.35;9.10;;;16.20;96.50;;;;;;4977707;28;20380;-78
2023/07/01 03:38:42;;;;;;;12.25;10.07;;;16.20;96.70;;;;;;4994234;28;20422;-79
2023/07/01 03:41:08;;;;;;;12.23;10.38;;;16.20;96.90;;;;;;4977766;28;20034;-79
2023/07/01 03:43:34;;;;;;;13.55;9.93;;;16.20;96.90;;;;;;4993787;28;20375;-78
2023/07/01 03:46:01;;;;;;;11.23;9.45;;;16.20;96.30;;;;;;4994188;28;20045;-78
2023/07/01 03:48:27;;;;;;;14.75;10.60;;;16.30;96.30;;;;;;4978645;28;20086;-79
2023/07/01 03:50:53;;;;;;;16.08;11.85;;;16.20;96.60;;;;;;4961332;28;20039;-79
2023/07/01 03:53:19;;;;;;;14.15;12.15;;;16.30;96.70;;;;;;4978443;28;20046;-78
2023/07/01 03:55:45;;;;;;;13.20;11.18;;;16.20;96.60;;;;;;4977703;28;20556;-79
2023/07/01 03:58:11;;;;;;;11.40;10.20;;;16.20;96.60;;;;;;4977487;28;20045;-79
2023/07/01 04:00:38;;;;;;;13.02;11.63;;;16.30;96.40;;;;;;4993569;28;20039;-79
2023/07/01 04:03:08;;;;;;;12.80;11.00;;;16.20;96.90;;;;;;4961501;28;20056;-78
2023/07/01 04:05:34;;;;;;;11.90;10.70;;;16.20;96.60;;;;;;4993427;28;20495;-78
2023/07/01 04:08:00;;;;;;;14.38;11.05;;;16.30;96.60;;;;;;4993282;28;20050;-78
2023/07/01 04:10:26;;;;;;;12.38;9.55;;;16.30;96.70;;;;;;4977522;28;20053;-79
2023/07/01 04:13:00;;;;;;;17.48;11.27;;;16.20;96.70;;;;;;5090696;27;20393;-79
2023/07/01 04:15:27;;;;;;;13.80;11.02;;;16.30;96.80;;;;;;5072631;28;20048;-79
2023/07/01 04:17:54;;;;;;;14.05;10.60;;;16.30;96.90;;;;;;5056207;28;20083;-79
2023/07/01 04:20:20;;;;;;;12.82;11.23;;;16.20;97.00;;;;;;5072460;28;20040;-78
2023/07/01 04:22:46;;;;;;;15.93;14.23;;;16.30;97.10;;;;;;5072285;28;20127;-78
2023/07/01 04:25:12;;;;;;;14.70;12.07;;;16.30;97.50;;;;;;5072555;28;20181;-79
2023/07/01 04:27:38;;;;;;;13.60;12.15;;;16.20;97.50;;;;;;5072615;28;20123;-78
2023/07/01 04:30:08;;;;;;;16.35;12.73;;;16.30;97.40;;;;;;5072539;28;20105;-80
2023/07/01 04:32:34;;;;;;;14.55;13.05;;;16.30;97.60;;;;;;5072606;28;20037;-78
2023/07/01 04:35:00;;;;;;;13.93;12.20;;;16.20;97.70;;;;;;5055746;28;20153;-79
2023/07/01 04:37:26;;;;;;;13.82;12.35;;;16.30;97.80;;;;;;5072570;28;20102;-79
2023/07/01 04:39:52;;;;;;;14.88;13.20;;;16.20;97.90;;;;;;5055807;28;20040;-78
2023/07/01 04:42:18;;;;;;;12.00;10.82;;;16.30;97.90;;;;;;5071911;28;20036;-78
2023/07/01 04:44:44;;;;;;;12.38;10.82;;;16.30;97.90;;;;;;5089087;28;20048;-79
2023/07/01 04:47:11;;;;;;;11.18;9.88;;;16.30;97.60;;;;;;5088955;28;20045;-79
2023/07/01 04:49:36;;;;;;;12.40;11.18;;;16.30;97.60;;;;;;5071946;28;20048;-78
2023/07/01 04:52:02;;;;;;;12.40;9.80;;;16.30;97.70;;;;;;5071887;28;20041;-78
2023/07/01 04:54:28;;;;;;;9.60;8.60;;;16.30;97.60;;;;;;5072199;28;20420;-78
2023/07/01 04:56:54;;;;;;;11.02;9.90;;;16.30;97.80;;;;;;5088816;28;20032;-78
2023/07/01 04:59:19;;;;;;;10.52;9.13;;;16.30;98.10;;;;;;5072033;28;20066;-80
2023/07/01 05:01:45;;;;;;;10.95;9.75;;;16.30;98.10;;;;;;5071534;28;20040;-79
2023/07/01 05:04:11;;;;;;;10.02;9.02;;;16.40;97.90;;;;;;5071950;28;20040;-79
2023/07/01 05:06:36;;;;;;;9.43;8.43;;;16.40;97.90;;;;;;5074035;28;20036;-78
2023/07/01 05:09:04;;;;;;;7.88;7.07;;;16.40;97.90;;;;;;5073547;28;20142;-79
2023/07/01 05:11:30;;;;;;;6.38;5.78;;;16.40;97.80;;;;;;5072261;28;20496;-79
2023/07/01 05:13:56;;;;;;;8.20;7.40;;;16.40;97.60;;;;;;5090108;28;20037;-79
2023/07/01 05:16:22;;;;;;;6.65;5.95;;;16.40;97.90;;;;;;5091912;28;20052;-79
2023/07/01 05:18:48;;;;;;;6.55;5.88;;;16.50;97.50;;;;;;5075324;28;20040;-79
2023/07/01 05:21:14;;;;;;;7.60;6.80;;;16.40;97.80;;;;;;5091811;28;20062;-79
2023/07/01 05:23:39;;;;;;;7.30;6.55;;;16.50;97.90;;;;;;5063964;28;20040;-78
2023/07/01 05:26:05;;;;;;;7.20;6.30;;;16.50;97.90;;;;;;5077418;28;20047;-78
2023/07/01 05:28:31;;;;;;;7.15;6.45;;;16.50;97.90;;;;;;5045284;28;20055;-79
2023/07/01 05:30:56;;;;;;;7.70;6.65;;;16.50;97.90;;;;;;5077098;28;20098;-78
2023/07/01 05:33:22;;;;;;;7.22;6.20;;;16.50;97.60;;;;;;5096280;28;20045;-78
2023/07/01 05:35:48;;;;;;;8.02;7.22;;;16.60;97.50;;;;;;5075832;28;20068;-78
2023/07/01 05:38:13;;;;;;;9.23;7.25;;;16.50;97.60;;;;;;5090614;28;20048;-78
2023/07/01 05:40:40;;;;;;;7.40;6.70;;;16.60;97.80;;;;;;5065005;28;20096;-78
2023/07/01 05:43:06;;;;;;;9.15;7.50;;;16.50;97.80;;;;;;5095532;28;20044;-79
2023/07/01 05:45:31;;;;;;;10.50;7.05;;;16.60;98.10;;;;;;5081820;28;20115;-77
2023/07/01 05:47:57;;;;;;;7.95;5.80;;;16.50;98.20;;;;;;5094969;28;20108;-78
2023/07/01 05:50:23;;;;;;;7.55;6.43;;;16.50;98.20;;;;;;5075187;28;20032;-77
2023/07/01 05:52:49;;;;;;;8.13;5.50;;;16.50;98.30;;;;;;5064756;28;20051;-78
2023/07/01 05:55:15;;;;;;;6.78;6.05;;;16.60;98.30;;;;;;5086877;28;20051;-78
2023/07/01 05:57:41;;;;;;;9.98;6.50;;;16.60;98.20;;;;;;5093810;28;20033;-78
2023/07/01 06:00:08;;;;;;;6.55;5.95;;;16.70;98.10;;;;;;5079055;28;20017;-78
2023/07/01 06:02:34;;;;;;;5.57;4.97;;;16.60;98.30;;;;;;5079052;28;20027;-78
2023/07/01 06:04:59;;;;;;;6.95;5.72;;;16.70;97.90;;;;;;5076930;28;20131;-78
2023/07/01 06:07:25;;;;;;;5.63;5.03;;;16.70;97.80;;;;;;5076618;28;20048;-79
2023/07/01 06:09:51;;;;;;;6.65;5.95;;;16.70;97.90;;;;;;5060033;28;20056;-79
2023/07/01 06:12:16;;;;;;;7.82;5.68;;;16.70;97.80;;;;;;5061821;28;20045;-79
2023/07/01 06:14:43;;;;;;;7.10;5.85;;;16.70;98.20;;;;;;5088734;28;20044;-79
2023/07/01 06:17:09;;;;;;;8.23;6.45;;;16.70;98.20;;;;;;5037149;28;20032;-78
2023/07/01 06:19:34;;;;;;;6.18;5.07;;;16.70;98.30;;;;;;5074141;28;20040;-78
2023/07/01 06:22:00;;;;;;;7.82;5.15;;;16.70;98.00;;;;;;5061250;28;20127;-78
2023/07/01 06:24:26;;;;;;;6.10;5.30;;;16.70;98.30;;;;;;5043121;28;20485;-78
2023/07/01 06:26:51;;;;;;;4.57;4.18;;;16.80;98.40;;;;;;5042652;28;20142;-78
2023/07/01 06:29:17;;;;;;;4.93;4.38;;;16.80;98.30;;;;;;5075172;28;20037;-79
2023/07/01 06:31:43;;;;;;;5.15;4.38;;;16.80;98.30;;;;;;5059193;28;20044;-78
2023/07/01 06:34:13;;;;;;;5.80;4.50;;;16.80;98.50;;;;;;5059341;28;20123;-78
2023/07/01 06:36:39;;;;;;;5.03;3.97;;;16.90;98.40;;;;;;5073757;28;20042;-79
2023/07/01 06:39:05;;;;;;;5.25;4.50;;;16.90;98.20;;;;;;5073634;28;20091;-79
2023/07/01 06:41:31;;;;;;;4.88;4.38;;;16.90;98.10;;;;;;5057906;28;20048;-79
2023/07/01 06:43:57;;;;;;;5.03;4.25;;;16.90;98.00;;;;;;5073396;28;20051;-78
2023/07/01 06:46:22;;;;;;;4.57;3.67;;;16.90;98.20;;;;;;5073992;28;20435;-80
2023/07/01 06:48:48;;;;;;;4.00;3.65;;;16.90;98.20;;;;;;5073776;28;20052;-80
2023/07/01 06:51:14;;;;;;;4.15;3.65;;;17.00;98.30;;;;;;5039995;28;20536;-79
2023/07/01 06:53:40;;;;;;;3.42;3.13;;;17.00;98.30;;;;;;5056620;28;20042;-79
2023/07/01 06:56:06;;;;;;;4.53;3.30;;;17.00;98.10;;;;;;5073666;28;20397;-79
2023/07/01 06:58:32;;;;;;;3.47;3.13;;;17.00;98.30;;;;;;5072953;28;20036;-79
2023/07/01 07:00:58;;;;;;;3.00;2.70;;;17.10;98.40;;;;;;5056406;28;20041;-79
2023/07/01 07:03:23;;;;;;;3.70;3.40;;;17.10;98.20;;;;;;5056254;28;20044;-79
2023/07/01 07:05:52;;;;;;;3.92;3.30;;;17.10;98.20;;;;;;5056680;28;20477;-79
2023/07/01 07:08:18;;;;;;;3.08;2.72;;;17.10;98.50;;;;;;5039850;28;20037;-78
2023/07/01 07:10:43;;;;;;;3.45;2.72;;;17.20;98.30;;;;;;5055929;28;20040;-79
2023/07/01 07:13:10;;;;;;;3.45;3.10;;;17.20;98.40;;;;;;5073149;28;20057;-79
2023/07/01 07:15:35;;;;;;;4.38;3.20;;;17.20;98.10;;;;;;5072862;28;20040;-79
2023/07/01 07:18:01;;;;;;;3.03;2.72;;;17.20;98.30;;;;;;5056217;28;20062;-78
2023/07/01 07:20:28;;;;;;;3.38;2.38;;;17.20;98.10;;;;;;5072868;28;20090;-79
2023/07/01 07:22:53;;;;;;;4.03;2.90;;;17.20;98.20;;;;;;5056896;28;20396;-79
2023/07/01 07:25:19;;;;;;;2.50;2.28;;;17.30;98.30;;;;;;5072747;28;20036;-78
2023/07/01 07:27:45;;;;;;;4.18;2.20;;;17.30;98.40;;;;;;5055718;28;20131;-80
2023/07/01 07:30:13;;;;;;;4.55;2.35;;;17.30;98.40;;;;;;5039169;28;20105;-77
2023/07/01 07:32:38;;;;;;;3.03;1.60;;;17.40;98.20;;;;;;5072346;28;20045;-78
2023/07/01 07:35:05;;;;;;;2.50;1.40;;;17.40;98.20;;;;;;5040886;28;20040;-78
2023/07/01 07:37:30;;;;;;;2.75;1.65;;;17.50;98.10;;;;;;5043625;28;20037;-78
2023/07/01 07:39:59;;;;;;;1.85;1.13;;;17.50;98.10;;;;;;5059632;28;20048;-78
2023/07/01 07:42:27;;;;;;;2.55;2.00;;;17.50;98.10;;;;;;5040915;28;20048;-79
2023/07/01 07:44:53;;;;;;;1.13;0.90;;;17.50;98.30;;;;;;5040766;28;20044;-79
2023/07/01 07:47:18;;;;;;;2.30;1.10;;;17.60;98.10;;;;;;5055818;28;20123;-80
2023/07/01 07:49:44;;;;;;;1.08;0.95;;;17.60;98.10;;;;;;5039351;28;20042;-80
2023/07/01 07:52:10;;;;;;;1.80;1.30;;;17.60;98.10;;;;;;5055630;28;20052;-78
2023/07/01 07:54:35;;;;;;;3.67;1.70;;;17.50;98.00;;;;;;5055653;28;20076;-79
2023/07/01 07:57:01;;;;;;;1.67;1.58;;;17.50;98.00;;;;;;5055545;28;20045;-79
2023/07/01 07:59:27;;;;;;;2.33;2.13;;;17.60;97.90;;;;;;5039318;28;20041;-79
2023/07/01 08:01:57;;;;;;;2.40;2.00;;;17.70;98.10;;;;;;5055677;28;20098;-80
2023/07/01 08:04:24;;;;;;;3.85;2.30;;;17.70;97.90;;;;;;5055015;28;20068;-80
2023/07/01 08:06:50;;;;;;;1.90;1.52;;;17.70;98.20;;;;;;5072308;28;20131;-79
2023/07/01 08:09:16;;;;;;;2.45;1.70;;;17.70;98.20;;;;;;5038829;28;20476;-79
2023/07/01 08:11:41;;;;;;;1.92;1.55;;;17.70;98.10;;;;;;5054967;28;20409;-80
2023/07/01 08:14:07;;;;;;;2.35;1.42;;;17.80;97.90;;;;;;5055300;28;20049;-80
2023/07/01 08:16:35;;;;;;;2.35;1.35;;;17.80;97.90;;;;;;5071779;28;20481;-80
2023/07/01 08:19:01;;;;;;;1.95;1.40;;;17.80;97.80;;;;;;5072131;28;20044;-79
2023/07/01 08:21:26;;;;;;;3.72;1.40;;;17.80;97.80;;;;;;5038706;28;20403;-79
2023/07/01 08:23:52;;;;;;;4.22;1.40;;;17.80;97.40;;;;;;5054320;28;20048;-79
2023/07/01 08:26:18;;;;;;;1.55;1.17;;;17.80;97.50;;;;;;5053758;28;20040;-78
2023/07/01 08:28:43;;;;;;;1.42;1.33;;;17.80;97.40;;;;;;5054074;28;20086;-79
2023/07/01 08:31:10;;;;;;;3.38;2.20;;;17.80;97.40;;;;;;5053637;28;20045;-78
2023/07/01 08:33:36;;;;;;;4.18;2.88;;;17.90;97.40;;;;;;5071286;28;20090;-78
2023/07/01 08:36:02;;;;;;;3.28;2.83;;;17.90;97.30;;;;;;5037789;28;20032;-78
2023/07/01 08:38:29;;;;;;;4.35;2.97;;;17.90;97.30;;;;;;5050280;28;20374;-79
2023/07/01 08:40:59;;;;;;;5.35;3.58;;;18.00;97.30;;;;;;5031406;28;20044;-80
2023/07/01 08:43:25;;;;;;;3.50;3.20;;;18.00;97.20;;;;;;5051295;28;20473;-78
2023/07/01 08:45:52;;;;;;;4.32;3.15;;;18.00;97.30;;;;;;5034644;28;20098;-79
2023/07/01 08:48:21;;;;;;;4.72;3.17;;;18.10;97.20;;;;;;5051553;28;20409;-78
2023/07/01 08:50:55;;;;;;;5.28;3.25;;;18.10;97.10;;;;;;5051450;28;20041;-80
2023/07/01 08:53:21;;;;;;;4.88;2.80;;;18.10;97.00;;;;;;5051323;28;20037;-79
2023/07/01 08:55:47;;;;;;;4.43;3.15;;;18.10;96.80;;;;;;5018352;28;20121;-79
2023/07/01 08:58:14;;;;;;;4.05;3.50;;;18.10;96.60;;;;;;5035849;28;20044;-81
2023/07/01 09:00:40;;;;;;;5.13;4.10;;;18.00;96.30;;;;;;5038557;28;20102;-81
2023/07/01 09:03:06;;;;;;;4.32;3.53;;;18.00;96.40;;;;;;5054819;28;20041;-79
2023/07/01 09:05:32;;;;;;;8.68;5.57;;;18.00;96.50;;;;;;5046057;28;20043;-81
2023/07/01 09:07:57;;;;;;;7.20;6.32;;;18.00;96.30;;;;;;5049738;28;20032;-79
2023/07/01 09:10:23;;;;;;;13.75;7.25;;;18.10;96.30;;;;;;5039501;28;20041;-80
2023/07/01 09:12:50;;;;;;;9.02;6.82;;;18.10;96.40;;;;;;5037634;28;20054;-79
2023/07/01 09:15:15;;;;;;;9.40;7.30;;;18.10;96.60;;;;;;5049588;28;20046;-80
2023/07/01 09:17:42;;;;;;;11.25;7.45;;;18.20;96.50;;;;;;5039349;28;20041;-78
2023/07/01 09:20:09;;;;;;;14.65;7.25;;;18.10;96.50;;;;;;5049248;28;20076;-78
2023/07/01 09:22:38;;;;;;;9.93;7.05;;;18.20;96.50;;;;;;5067115;28;20106;-78
2023/07/01 09:25:04;;;;;;;12.40;8.15;;;18.20;96.20;;;;;;5065892;28;20037;-78
2023/07/01 09:27:48;;;;;;;10.40;6.32;;;18.20;96.10;;;;;;5065628;28;20074;-78
2023/07/01 09:30:20;;;;;;;16.08;8.60;;;18.20;96.20;;;;;;5050577;28;20048;-79
2023/07/01 09:32:47;;;;;;;8.75;7.05;;;18.30;96.00;;;;;;5049831;28;20056;-76
2023/07/01 09:35:13;;;;;;;6.57;5.25;;;18.30;95.90;;;;;;5067033;28;20040;-76
2023/07/01 09:37:39;;;;;;;11.13;7.97;;;18.30;95.80;;;;;;5049413;28;20036;-76
2023/07/01 09:40:24;;;;;;;8.95;6.78;;;18.30;95.50;;;;;;5049178;28;20033;-77
2023/07/01 09:42:55;;;;;;;7.70;6.90;;;18.20;95.60;;;;;;5050454;28;20569;-77
2023/07/01 09:45:21;;;;;;;12.00;7.65;;;18.30;95.40;;;;;;5050451;28;20040;-77
2023/07/01 09:47:54;;;;;;;9.95;7.32;;;18.30;95.40;;;;;;5065111;28;20041;-77
2023/07/01 09:50:26;;;;;;;9.23;6.85;;;18.30;95.40;;;;;;5050232;28;20055;-77
2023/07/01 09:52:53;;;;;;;9.52;6.82;;;18.40;95.60;;;;;;5066646;28;20066;-77
2023/07/01 09:55:19;;;;;;;9.57;6.32;;;18.30;95.70;;;;;;5066611;28;20055;-76
2023/07/01 09:57:45;;;;;;;7.53;6.68;;;18.30;95.80;;;;;;5065044;28;20052;-77
2023/07/01 10:00:16;;;;;;;7.95;5.95;;;18.40;95.60;;;;;;5049595;28;20051;-77
2023/07/01 10:02:46;;;;;;;8.25;6.70;;;18.30;95.40;;;;;;5049993;28;20053;-77
2023/07/01 10:05:13;;;;;;;8.50;5.97;;;18.30;95.30;;;;;;5066206;28;20583;-77
2023/07/01 10:07:43;;;;;;;8.18;6.53;;;18.30;95.40;;;;;;5048361;28;20621;-77
2023/07/01 10:10:16;;;;;;;11.02;7.68;;;18.30;95.50;;;;;;5049840;28;20045;-77
2023/07/01 10:12:44;;;;;;;9.85;7.78;;;18.40;95.70;;;;;;5061472;28;20072;-77
2023/07/01 10:15:11;;;;;;;11.10;9.02;;;18.40;95.60;;;;;;5066418;28;20079;-77
2023/07/01 10:17:48;;;;;;;9.80;8.30;;;18.40;95.60;;;;;;5059266;28;20036;-77
2023/07/01 10:20:29;;;;;;;12.00;8.80;;;18.30;95.40;;;;;;5065647;28;20094;-77
2023/07/01 10:22:57;;;;;;;10.93;7.78;;;18.20;95.20;;;;;;5049426;28;20052;-77
2023/07/01 10:25:33;;;;;;;11.57;9.00;;;18.30;95.20;;;;;;5065039;28;20099;-77
2023/07/01 10:27:59;;;;;;;13.70;9.20;;;18.30;95.00;;;;;;5063749;28;20082;-76
2023/07/01 10:30:45;;;;;;;12.50;9.52;;;18.30;95.10;;;;;;5066048;28;20059;-76
2023/07/01 10:33:39;;;;;;;12.30;8.20;;;18.40;95.10;;;;;;5062847;28;20084;-77
2023/07/01 10:36:17;;;;;;;12.63;9.38;;;18.50;95.00;;;;;;5047744;28;20045;-77
2023/07/01 10:38:43;;;;;;;11.57;8.82;;;18.60;95.00;;;;;;5030388;28;20052;-77
2023/07/01 10:41:09;;;;;;;15.45;9.50;;;18.70;94.90;;;;;;5046360;28;20474;-77
2023/07/01 10:43:36;;;;;;;11.27;9.68;;;18.70;94.80;;;;;;5063778;28;20115;-78
2023/07/01 10:46:13;;;;;;;10.13;8.88;;;18.70;94.60;;;;;;5063567;28;20099;-77
2023/07/01 10:48:43;;;;;;;9.57;7.97;;;18.70;94.40;;;;;;5030819;28;20428;-78
2023/07/01 10:51:10;;;;;;;10.45;7.90;;;18.70;94.00;;;;;;5046868;28;20050;-78
2023/07/01 10:54:03;;;;;;;11.93;9.05;;;18.70;93.40;;;;;;5047774;28;20040;-78
2023/07/01 10:56:34;;;;;;;13.68;8.40;;;18.80;93.80;;;;;;5047418;28;20047;-78
2023/07/01 10:59:20;;;;;;;13.60;9.10;;;18.90;93.90;;;;;;5063339;28;20115;-78
2023/07/01 11:01:50;;;;;;;13.82;8.27;;;18.90;93.60;;;;;;5047005;28;20097;-78
2023/07/01 11:04:18;;;;;;;15.85;9.93;;;18.90;93.30;;;;;;5064867;28;20083;-76
2023/07/01 11:06:55;;;;;;;12.63;9.48;;;18.90;93.20;;;;;;5069556;28;20059;-76
2023/07/01 11:09:34;;;;;;;9.88;8.38;;;18.90;93.60;;;;;;5034438;28;20051;-78
2023/07/01 11:12:04;;;;;;;11.10;8.88;;;18.90;93.20;;;;;;5054620;28;20133;-79
2023/07/01 11:14:35;;;;;;;10.18;7.70;;;18.90;93.00;;;;;;5055236;28;20492;-76
2023/07/01 11:17:17;;;;;;;8.88;7.03;;;19.00;92.60;;;;;;5072549;28;20139;-76
2023/07/01 11:19:46;;;;;;;6.68;6.05;;;19.00;92.30;;;;;;5072266;28;20119;-76
2023/07/01 11:22:16;;;;;;;9.38;6.20;;;19.10;91.50;;;;;;5071750;28;20124;-76
2023/07/01 11:24:42;;;;;;;4.85;4.35;;;19.10;90.60;;;;;;5072167;28;20045;-78
2023/07/01 11:27:09;;;;;;;5.72;4.32;;;19.10;89.80;;;;;;5070959;28;20051;-79
2023/07/01 11:29:35;;;;;;;9.02;4.47;;;19.20;89.30;;;;;;5052046;28;20076;-76
2023/07/01 11:32:03;;;;;;;5.80;5.25;;;19.30;89.00;;;;;;5052107;28;20045;-76
2023/07/01 11:34:30;;;;;;;6.32;3.83;;;19.30;89.00;;;;;;5035390;28;20033;-76
2023/07/01 11:36:56;;;;;;;7.68;4.13;;;19.30;88.80;;;;;;5052584;28;20037;-76
2023/07/01 11:39:23;;;;;;;6.60;4.13;;;19.40;89.10;;;;;;5035547;28;20482;-76
2023/07/01 11:41:55;;;;;;;5.70;4.72;;;19.50;88.20;;;;;;5051903;28;20546;-77
2023/07/01 11:44:26;;;;;;;7.93;4.68;;;19.50;87.70;;;;;;5052217;28;20124;-78
2023/07/01 11:46:53;;;;;;;5.65;4.60;;;19.50;87.80;;;;;;5035244;28;20044;-78
2023/07/01 11:49:25;;;;;;;5.15;4.65;;;19.60;87.10;;;;;;5061933;28;20493;-78
2023/07/01 11:51:55;;;;;;;5.05;3.47;;;19.70;87.10;;;;;;5062442;28;20492;-78
2023/07/01 11:54:40;;;;;;;4.68;3.75;;;19.90;86.50;;;;;;5030283;28;20040;-80
2023/07/01 11:57:19;;;;;;;6.95;3.90;;;19.90;85.60;;;;;;5053800;28;20041;-80
2023/07/01 11:59:46;;;;;;;5.65;3.90;;;19.80;84.90;;;;;;5060872;28;20037;-77
2023/07/01 12:02:12;;;;;;;3.67;2.75;;;19.80;84.50;;;;;;5061148;28;20059;-78
2023/07/01 12:04:38;;;;;;;5.15;3.17;;;19.70;83.30;;;;;;5045460;28;20396;-80
2023/07/01 12:07:11;;;;;;;5.05;3.10;;;19.90;83.30;;;;;;5060453;28;20086;-78
2023/07/01 12:09:38;;;;;;;5.63;3.20;;;20.00;83.10;;;;;;5060090;28;20501;-78
2023/07/01 12:12:04;;;;;;;4.88;3.42;;;20.10;83.40;;;;;;5045076;28;20053;-79
2023/07/01 12:14:30;;;;;;;4.75;3.17;;;20.20;83.80;;;;;;5063189;28;20073;-79
2023/07/01 12:16:56;;;;;;;6.97;4.50;;;20.10;84.00;;;;;;5067853;28;20072;-78
2023/07/01 12:19:24;;;;;;;6.22;4.38;;;20.20;84.10;;;;;;5058166;28;20041;-78
2023/07/01 12:21:51;;;;;;;6.63;4.03;;;20.20;84.10;;;;;;5067298;28;20040;-79
2023/07/01 12:24:18;;;;;;;8.23;4.30;;;20.10;84.40;;;;;;5057591;28;20102;-79
2023/07/01 12:26:48;;;;;;;5.50;4.25;;;20.10;84.40;;;;;;5062503;28;20036;-79
2023/07/01 12:29:14;;;;;;;3.65;2.50;;;20.10;84.90;;;;;;5043585;28;20050;-77
2023/07/01 12:31:40;;;;;;;3.35;2.33;;;20.20;84.30;;;;;;5059535;28;20052;-78
2023/07/01 12:34:05;;;;;;;4.45;1.98;;;20.10;83.20;;;;;;5061492;28;20029;-78
2023/07/01 12:36:31;;;;;;;3.13;1.75;;;20.20;82.20;;;;;;5059103;28;20091;-78
2023/07/01 12:38:58;;;;;;;3.63;2.40;;;20.20;81.90;;;;;;5056736;28;20432;-78
2023/07/01 12:41:28;;;;;;;4.43;3.35;;;20.20;81.00;;;;;;5034781;28;20065;-77
2023/07/01 12:43:55;;;;;;;6.75;2.30;;;20.10;80.50;;;;;;5043574;28;20056;-78
2023/07/01 12:46:21;;;;;;;5.07;2.65;;;20.10;80.30;;;;;;5070239;28;20033;-78